CYCB

Cambridge Bay Airport

Cambridge Bay, Canada
METAR CYCB 250600Z 02012KT 15SM FEW005 BKN020 OVC110 02/M00 A2986 RMK CF2SC4AC2 SLP114
Observed Flight Rules
Jun-25 @ 06:00 UTC (24 minutes ago) Marginal Visual Flight Rules
Wind Visibility Clouds
20° at 12 knots 15 miles
  • Few at 500' AGL
  • Broken at 2,000' AGL
  • Overcast at 11,000' AGL
Temperatures Readings
Current 2°C / 36°F
Dewpoint 0°C / 32°F
Humidity 87%
Altimeter 29.86" Hg
Pressure 1011.4 hPa
Elevation 27
METAR CYCB 250600Z 02012KT 15SM FEW005 BKN020 OVC110 02/M00 A2986 RMK CF2SC4AC2 SLP114
Observed Flight Rules
Jun-25 @ 06:00 UTC
(24 minutes ago)
MVFR
Wind Visibility
20° at 12 knots 15 miles
Clouds
  • Few at 500' AGL
  • Broken at 2,000' AGL
  • Overcast at 11,000' AGL
Temperature Dewpoint
2°C / 36°F 0°C / 32°F
Humidity Altimeter Pressure
87% 29.86" Hg 1011.4 hPa